Flight Track Log - Related Links

Times and Time Zones

All times are in EDT time to prevent confusion due to time zone crossing. See the N1811Y flight status page for this flight to view local times or setup timezone preferences in your user account.

Time Position Orientation Groundspeed Altitude Reporting Facility
EDT Latitude Longitude Course Direction KTS MPH feet Rate Location/Type
Sun 12:30:31 PM 32.9581 -85.8931 44° Northeast 131 151 3,800  Level Atlanta Center
Sun 12:31:31 PM 32.9792 -85.8689 44° Northeast 114 131 4,500 650 Climbing Atlanta Center
Sun 12:32:31 PM 33.0067 -85.8494 31° Northeast 109 125 5,100 600 Climbing Atlanta Center
Sun 12:33:31 PM 33.0319 -85.8278 36° Northeast 109 125 5,700 550 Climbing Atlanta Center
Sun 12:34:31 PM 33.0594 -85.8111 27° Northeast 103 119 6,200 550 Climbing Atlanta Center
Sun 12:35:31 PM 33.0908 -85.7942 24° Northeast 103 119 6,800 600 Climbing Atlanta Center
Sun 12:36:31 PM 33.1203 -85.7775 25° Northeast 103 119 7,400 600 Climbing Atlanta Center
Sun 12:37:31 PM 33.1519 -85.7558 30° Northeast 115 132 8,000 500 Climbing Atlanta Center
Sun 12:38:31 PM 33.1814 -85.7364 29° Northeast 115 132 8,400 400 Climbing Atlanta Center
Sun 12:39:31 PM 33.2131 -85.7197 24° Northeast 115 132 8,800 300 Climbing Atlanta Center
Sun 12:40:31 PM 33.2467 -85.6981 28° Northeast 115 132 9,000 100 Climbing Atlanta Center
Sun 12:41:31 PM 33.2847 -85.6714 30° Northeast 127 146 9,000  Level Atlanta Center
Sun 12:42:31 PM 33.3244 -85.6522 22° Northeast 160 184 9,000  Level Atlanta Center
Sun 12:43:31 PM 33.3667 -85.6283 25° Northeast 165 190 9,000  Level Atlanta Center
Sun 12:44:31 PM 33.4044 -85.6039 28° Northeast 160 184 9,000  Level Atlanta Center
Sun 12:45:31 PM 33.4467 -85.5750 30° Northeast 160 184 9,000  Level Atlanta Center
Sun 12:46:31 PM 33.4886 -85.5508 26° Northeast 161 185 9,000  Level Atlanta Center
Sun 12:47:31 PM 33.5264 -85.5264 28° Northeast 156 180 9,000  Level Atlanta Center
Sun 12:48:31 PM 33.5706 -85.4972 29° Northeast 156 180 9,000  Level Atlanta Center
Sun 12:49:31 PM 33.6128 -85.4731 25° Northeast 161 185 9,000  Level Atlanta Center
Sun 12:50:31 PM 33.6506 -85.4464 30° Northeast 154 177 9,000  Level Atlanta Center
Sun 12:51:31 PM 33.6906 -85.4219 27° Northeast 154 177 9,000  Level Atlanta Center
Sun 12:52:31 PM 33.7325 -85.3953 28° Northeast 154 177 9,000  Level Atlanta Center
Sun 12:53:31 PM 33.7725 -85.3733 25° Northeast 154 177 9,000  Level Atlanta Center
Sun 12:54:31 PM 33.8144 -85.3439 30° Northeast 160 184 9,000  Level Atlanta Center
Sun 12:55:31 PM 33.8544 -85.3194 27° Northeast 160 184 9,000  Level Atlanta Center
Sun 12:56:31 PM 33.8964 -85.2925 28° Northeast 160 184 9,000  Level Atlanta Center
Sun 12:57:31 PM 33.9300 -85.2706 28° Northeast 160 184 9,000  Level Atlanta Center
Sun 12:58:31 PM 33.9700 -85.2461 27° Northeast 160 184 9,000  Level Atlanta Center
Sun 12:59:31 PM 34.0119 -85.2192 28° Northeast 154 177 9,000  Level Atlanta Center
Sun 01:00:31 PM 34.0497 -85.1947 28° Northeast 154 177 9,000  Level Atlanta Center
Sun 01:01:31 PM 34.0917 -85.1675 28° Northeast 154 177 9,000  Level Atlanta Center
Sun 01:02:31 PM 34.1336 -85.1431 26° Northeast 154 177 9,000  Level Atlanta Center
Sun 01:03:31 PM 34.1736 -85.1133 32° Northeast 154 177 9,000  Level Atlanta Center
Sun 01:04:31 PM 34.2072 -85.0761 42° Northeast 160 184 9,000  Level Atlanta Center
Sun 01:05:31 PM 34.2411 -85.0389 42° Northeast 159 183 9,000  Level Atlanta Center
Sun 01:06:31 PM 34.2747 -84.9967 46° Northeast 159 183 9,000  Level Atlanta Center
Sun 01:07:31 PM 34.3083 -84.9592 43° Northeast 159 183 9,000  Level Atlanta Center
Sun 01:08:31 PM 34.3422 -84.9194 44° Northeast 164 189 9,000  Level Atlanta Center
Sun 01:09:31 PM 34.3736 -84.8819 45° Northeast 164 189 9,000  Level Atlanta Center
Sun 01:10:31 PM 34.4053 -84.8469 42° Northeast 164 189 9,000  Level Atlanta Center
Sun 01:11:31 PM 34.4389 -84.8069 44° Northeast 169 194 9,000  Level Atlanta Center
Sun 01:12:31 PM 34.4725 -84.7694 43° Northeast 169 194 9,000  Level Atlanta Center
Sun 01:13:31 PM 34.5039 -84.7344 43° Northeast 169 194 9,000  Level Atlanta Center
Sun 01:14:31 PM 34.5397 -84.6919 44° Northeast 169 194 9,000  Level Atlanta Center
Sun 01:15:31 PM 34.5711 -84.6569 43° Northeast 169 194 9,000  Level Atlanta Center
Sun 01:16:31 PM 34.6069 -84.6142 44° Northeast 164 189 9,000  Level Atlanta Center
Sun 01:17:31 PM 34.6425 -84.5767 41° Northeast 164 189 9,000  Level Atlanta Center
Sun 01:18:31 PM 34.6719 -84.5439 42° Northeast 158 182 9,000  Level Atlanta Center
Sun 01:19:31 PM 34.7097 -84.4986 45° Northeast 158 182 9,000  Level Atlanta Center
Sun 01:20:31 PM 34.7411 -84.4633 43° Northeast 158 182 9,000  Level Atlanta Center
Sun 01:21:31 PM 34.7744 -84.4231 45° Northeast 158 182 9,000  Level Atlanta Center
Sun 01:22:31 PM 34.8081 -84.3828 45° Northeast 163 188 9,000  Level Atlanta Center
Sun 01:23:31 PM 34.8417 -84.3450 43° Northeast 163 188 9,000  Level Atlanta Center
Sun 01:24:31 PM 34.8750 -84.3072 43° Northeast 163 188 9,000  Level Atlanta Center
Sun 01:25:31 PM 34.9044 -84.2744 42° Northeast 158 182 9,000  Level Atlanta Center
Sun 01:26:31 PM 34.9397 -84.2389 40° Northeast 164 189 9,000  Level Atlanta Center
Sun 01:27:31 PM 34.9775 -84.2036 37° Northeast 159 183 9,000  Level Atlanta Center
Sun 01:28:31 PM 35.0067 -84.1581 52° Northeast 159 183 9,000  Level Atlanta Center
Sun 01:29:31 PM 35.0403 -84.1200 43° Northeast 164 189 9,000  Level Atlanta Center
Sun 01:30:31 PM 35.0736 -84.0819 43° Northeast 164 189 9,000  Level Atlanta Center
Sun 01:31:31 PM 35.1069 -84.0414 45° Northeast 169 194 9,000  Level Atlanta Center
Sun 01:32:31 PM 35.1425 -84.0006 43° Northeast 169 194 9,000  Level Atlanta Center
Sun 01:33:31 PM 35.1758 -83.9625 43° Northeast 169 194 9,000  Level Atlanta Center
Sun 01:34:31 PM 35.2111 -83.9219 43° Northeast 169 194 9,000  Level Atlanta Center
Sun 01:35:31 PM 35.2425 -83.8836 45° Northeast 169 194 9,000  Level Atlanta Center
Sun 01:36:31 PM 35.2778 -83.8428 43° Northeast 169 194 9,000  Level Atlanta Center
Sun 01:37:31 PM 35.3133 -83.8019 43° Northeast 169 194 9,000  Level Atlanta Center
Sun 01:38:31 PM 35.3467 -83.7636 43° Northeast 169 194 9,000  Level Atlanta Center
Sun 01:39:31 PM 35.3819 -83.7228 43° Northeast 169 194 9,000  Level Atlanta Center
Sun 01:40:31 PM 35.4153 -83.6844 43° Northeast 169 194 9,000  Level Atlanta Center
Sun 01:41:31 PM 35.4464 -83.6436 47° Northeast 169 194 9,000  Level Atlanta Center
Sun 01:42:31 PM 35.4817 -83.6025 43° Northeast 169 194 9,000  Level Atlanta Center
Sun 01:44:00 PM 35.5281 -83.5453 45° Northeast  Level FlightAware Approximate
Sun 01:51:00 PM 35.7469 -83.2742 45° Northeast  Level FlightAware Approximate
Sun 01:52:00 PM 35.7781 -83.2354 45° Northeast  Level FlightAware Approximate
Sun 01:53:00 PM 35.8093 -83.1965 45° Northeast  Level FlightAware Approximate
Sun 01:54:00 PM 35.8405 -83.1576 45° Northeast  Level FlightAware Approximate
Sun 01:55:00 PM 35.8717 -83.1187 45° Northeast  Level FlightAware Approximate
Sun 01:56:00 PM 35.9034 -83.0799 39° Northeast  Level FlightAware Approximate
Sun 01:57:00 PM 35.9379 -83.0454 39° Northeast  Level FlightAware Approximate
Sun 01:58:00 PM 35.9724 -83.0110 39° Northeast  Level FlightAware Approximate
Sun 01:59:00 PM 36.0036 -82.9722 48° Northeast  Level FlightAware Approximate
Sun 02:00:00 PM 36.0333 -82.9315 48° Northeast  Level FlightAware Approximate
Sun 02:01:00 PM 36.0629 -82.8907 48° Northeast  Level FlightAware Approximate
Sun 02:02:00 PM 36.0926 -82.8499 48° Northeast  Level FlightAware Approximate
Sun 02:03:00 PM 36.1227 -82.8096 43° Northeast  Level FlightAware Approximate
Sun 02:04:00 PM 36.1550 -82.7720 43° Northeast  Level FlightAware Approximate
Sun 02:05:00 PM 36.1874 -82.7344 43° Northeast  Level FlightAware Approximate
Sun 02:06:00 PM 36.2197 -82.6967 43° Northeast  Level FlightAware Approximate
Sun 02:07:00 PM 36.2519 -82.6590 43° Northeast  Level FlightAware Approximate
Sun 02:08:00 PM 36.2842 -82.6213 43° Northeast  Level FlightAware Approximate
Sun 02:09:00 PM 36.3165 -82.5835 43° Northeast  Level FlightAware Approximate
Sun 02:10:00 PM 36.3481 -82.5450 44° Northeast  Level FlightAware Approximate
Sun 02:11:00 PM 36.3798 -82.5063 45° Northeast  Level FlightAware Approximate
Sun 02:12:00 PM 36.4114 -82.4677 45° Northeast  Level FlightAware Approximate
Sun 02:13:00 PM 36.4430 -82.4290 45° Northeast  Level FlightAware Approximate
Sun 02:14:00 PM 36.4667 -82.4000 44° Northeast  Level FlightAware Approximate
Sun 02:15:00 PM 36.4752 -82.4074 44° Northeast  Level Estimated
Sun 02:16:00 PM 36.4752 -82.4074 44° Northeast  Level Estimated
Sun 02:17:00 PM 36.4752 -82.4074 44° Northeast  Level Estimated
Sun 02:18:00 PM 36.4752 -82.4074 44° Northeast  Level Estimated
Sun 02:19:00 PM 36.4752 -82.4074 44° Northeast  Level Estimated
Sun 02:20:00 PM 36.4752 -82.4074 44° Northeast  Level Estimated
Sun 02:21:00 PM 36.4752 -82.4074 44° Northeast  Level Estimated
Sun 02:22:00 PM 36.4752 -82.4074 44° Northeast  Level Estimated
Sun 02:23:00 PM 36.4752 -82.4074 44° Northeast  Level Estimated

Login

Don't have an account? Register now (free) for customized features, flight alerts, and more!